Airfield :
LOGIN :

Register | Disclaimer

   EN    FR    IT 

 










Legend :    VFR   Marginal VFR   IFR   Intensive IFR   Very Intensive IFR
Visi :
Ceiling :
>= 8 km
>= 3000ft
5 to 8 km
1000 to 3000 ft
1500m to 5 km
500 to 1000 ft
800 to 1500m
200 to 500 ft
< 800m
< 200 ft
Symbols :   Thunderstorms  Fog  Heavy snow  Heavy precipitations  Wind > 20 kt
SIGMETs :     Misc.  Thunderstorms  Icing  Turbulence  Mountain Waves  Volcanic Ashes







- Airport Elevation : 157 ft
- IATA code : LIL
- Download approach charts


LFQQ - Lille Lesquin

CURRENT METAR :
  • 191630Z AUTO 31010KT 9999 FEW018/// BKN086/// ///TCU 15/11 Q1021 BECMG SCT025

EXPIRED METARs :
  • 191600Z AUTO 32013KT 9999 FEW021 SCT044 BKN054 16/12 Q1020 NOSIG
  • 191530Z AUTO 31011KT CAVOK 17/11 Q1020 NOSIG
  • 191500Z AUTO 33006KT 290V350 CAVOK 16/11 Q1020 TEMPO 4000 SHRA BKN014 BKN025TCU
  • 191430Z AUTO 35007KT 320V020 9999 FEW026 SCT039 BKN050 15/12 Q1020 TEMPO 4000 SHRA BKN014 BKN025TCU
  • 191400Z AUTO 28006KT 240V330 9999 SCT027/// BKN033/// BKN041/// ///TCU 15/12 Q1020 TEMPO 4000 SHRA BKN014 BKN025TCU

TAF TAF LFQQ
Valid from the 19 at 12:00 until the 20 at 18:00 UTC


191100Z 1912/2018 33012KT 9999 SCT025
TEMPO 1912/1916 4000 SHRA BKN014 BKN025TCU
BECMG 1918/1920 VRB02KT
BECMG 1920/1923 3000 BR
PROB40
TEMPO 1920/2007 0500 BCFG
PROB30
TEMPO 2006/2008 BKN006
BECMG 2007/2010 25008KT 9999 NSW
ATIS : +33 3 20 16 19 54
No reported NOTAMs for that airfield.



MET'MAP, your aeronautical weather chart ! - Copyright ORBIFLY December 2007 - Disclaimer

ORBIFLY MET'MAP TEAM :

Programming & Development : Alexandra Zaïnal
Concept & Development : Baudouin d'Aumeries
Co-Development & Prog : Marc-Olivier Méhu
Technical & hardware support : Manuel Goepfert

Contact : metmap@orbifly.com




SOURCES & CREDITS :

   NOAA